createdAt,value
2022-10-17T00:01:19.272Z,75.69
2022-10-17T00:04:22.415Z,75.89
2022-10-17T00:07:25.619Z,75.41
2022-10-17T00:10:28.718Z,75.97
2022-10-17T00:13:34.514Z,76.23
2022-10-17T00:16:37.941Z,77.08
2022-10-17T00:19:40.595Z,77.22
2022-10-17T00:22:43.930Z,77.26
2022-10-17T00:25:47.076Z,78.15
2022-10-17T00:28:51.798Z,77.79
2022-10-17T00:31:56.396Z,77.91
2022-10-17T00:35:01.598Z,77.62
2022-10-17T00:38:04.191Z,78.15
2022-10-17T00:41:08.868Z,78.47
2022-10-17T00:44:31.706Z,77.82
2022-10-17T00:47:36.996Z,77.43
2022-10-17T00:50:43.273Z,77.88
2022-10-17T00:53:46.373Z,78.37
2022-10-17T00:56:55.204Z,79.71
2022-10-17T01:00:00.032Z,79.50
2022-10-17T01:03:02.789Z,79.10
2022-10-17T01:06:05.898Z,79.72
2022-10-17T01:09:08.759Z,79.40
2022-10-17T01:12:20.766Z,80.14
2022-10-17T01:15:26.057Z,80.24
2022-10-17T01:18:51.882Z,80.45
2022-10-17T01:22:09.291Z,80.17
2022-10-17T01:25:35.509Z,80.61
2022-10-17T01:28:59.645Z,80.54
2022-10-17T01:32:23.209Z,80.08
2022-10-17T01:35:53.894Z,79.70
2022-10-17T01:39:21.281Z,79.40
2022-10-17T01:43:09.095Z,78.51
2022-10-17T01:46:19.791Z,79.14
2022-10-17T01:49:27.159Z,79.32
2022-10-17T01:52:38.899Z,79.35
2022-10-17T01:55:45.145Z,79.56
2022-10-17T01:59:00.837Z,78.68
2022-10-17T02:02:05.352Z,78.06
2022-10-17T02:05:10.535Z,79.40
2022-10-17T02:08:14.032Z,79.08
2022-10-17T02:11:23.886Z,79.89
2022-10-17T02:14:37.809Z,80.46
2022-10-17T02:18:16.195Z,80.21
2022-10-17T02:21:48.151Z,80.66
2022-10-17T02:25:09.659Z,81.28
2022-10-17T02:28:25.832Z,81.41
2022-10-17T02:31:42.113Z,80.98
2022-10-17T02:34:52.723Z,80.11
2022-10-17T02:37:56.361Z,79.53
2022-10-17T02:41:01.150Z,80.43
2022-10-17T02:44:07.079Z,79.80
2022-10-17T02:47:18.673Z,79.77
2022-10-17T02:53:55.315Z,80.27
2022-10-17T02:57:04.501Z,79.68
2022-10-17T03:00:11.188Z,80.55
2022-10-17T03:03:27.413Z,80.77
2022-10-17T03:06:30.560Z,81.78
2022-10-17T03:09:33.718Z,81.27
2022-10-17T03:12:36.523Z,80.81
2022-10-17T03:15:39.522Z,80.76
2022-10-17T03:18:45.378Z,80.88
2022-10-17T03:21:51.021Z,80.59
2022-10-17T03:24:53.942Z,80.72
2022-10-17T03:28:00.583Z,80.57
2022-10-17T03:31:11.110Z,80.38
2022-10-17T03:34:16.908Z,80.65
2022-10-17T03:37:19.930Z,81.32
2022-10-17T03:40:23.191Z,81.25
2022-10-17T03:43:25.834Z,81.40
2022-10-17T03:46:28.834Z,81.89
2022-10-17T03:49:31.990Z,81.26
2022-10-17T03:52:35.144Z,81.18
2022-10-17T03:55:38.785Z,81.86
2022-10-17T03:58:42.634Z,81.74
2022-10-17T04:01:45.551Z,81.54
2022-10-17T04:04:49.766Z,81.25
2022-10-17T04:07:52.434Z,81.11
2022-10-17T04:11:01.059Z,80.41
2022-10-17T04:14:03.957Z,81.10
2022-10-17T04:17:07.013Z,81.50
2022-10-17T04:20:10.750Z,80.64
2022-10-17T04:23:13.856Z,80.98
2022-10-17T04:26:16.773Z,80.13
2022-10-17T04:29:19.788Z,80.80
2022-10-17T04:32:22.912Z,80.52
2022-10-17T04:35:26.334Z,80.63
2022-10-17T04:38:29.974Z,80.99
2022-10-17T04:41:33.048Z,79.50
2022-10-17T04:44:37.776Z,80.15
2022-10-17T04:47:41.140Z,80.47
2022-10-17T04:50:57.401Z,81.00
2022-10-17T04:54:01.290Z,81.04
2022-10-17T04:57:04.446Z,80.86
2022-10-17T05:03:20.580Z,80.71
2022-10-17T05:06:25.832Z,81.95
2022-10-17T05:09:30.956Z,81.52
2022-10-17T05:12:34.072Z,80.85
2022-10-17T05:15:37.926Z,80.20
2022-10-17T05:18:40.876Z,81.03
2022-10-17T05:21:46.327Z,80.89
2022-10-17T05:24:49.223Z,81.24
2022-10-17T05:27:51.887Z,81.08
2022-10-17T05:30:55.195Z,80.56
2022-10-17T05:34:02.719Z,81.55
2022-10-17T05:37:06.387Z,80.85
2022-10-17T05:40:09.687Z,81.08
2022-10-17T05:43:12.842Z,81.23
2022-10-17T05:46:15.525Z,81.76
2022-10-17T05:49:31.959Z,82.23
2022-10-17T05:52:36.176Z,82.42
2022-10-17T05:55:39.583Z,82.02
2022-10-17T05:58:51.547Z,81.60
2022-10-17T06:01:58.070Z,78.92
2022-10-17T06:05:02.375Z,79.15
2022-10-17T06:08:05.246Z,79.02
2022-10-17T06:11:10.486Z,78.08
2022-10-17T06:14:13.975Z,77.19
2022-10-17T06:17:17.376Z,74.69
2022-10-17T06:20:20.317Z,73.25
2022-10-17T06:23:23.402Z,73.30
2022-10-17T06:26:28.293Z,73.62
2022-10-17T06:29:31.847Z,73.32
2022-10-17T06:32:34.489Z,72.71
2022-10-17T06:35:37.494Z,71.97
2022-10-17T06:38:40.208Z,71.58
2022-10-17T06:41:45.141Z,71.08
2022-10-17T06:44:47.795Z,70.23
2022-10-17T06:47:53.867Z,70.24
2022-10-17T06:51:02.423Z,69.47
2022-10-17T06:54:05.462Z,68.95
2022-10-17T06:57:08.887Z,68.22
2022-10-17T07:00:12.836Z,67.71
2022-10-17T07:03:16.146Z,67.15
2022-10-17T07:06:19.413Z,66.37
2022-10-17T07:09:23.090Z,65.48
2022-10-17T07:12:26.596Z,64.71
2022-10-17T07:15:29.229Z,63.92
2022-10-17T07:18:32.778Z,63.26
2022-10-17T07:21:38.301Z,63.05
2022-10-17T07:24:42.727Z,61.95
2022-10-17T07:27:49.683Z,61.54
2022-10-17T07:30:55.373Z,61.17
2022-10-17T07:34:00.513Z,61.40
2022-10-17T07:37:04.365Z,60.96
2022-10-17T07:40:09.897Z,60.72
2022-10-17T07:43:13.042Z,59.86
2022-10-17T07:46:15.676Z,59.27
2022-10-17T07:49:20.008Z,58.00
2022-10-17T07:52:23.372Z,57.15
2022-10-17T07:55:26.298Z,56.19
2022-10-17T07:58:29.650Z,55.77
2022-10-17T08:01:32.536Z,56.03
2022-10-17T08:04:36.641Z,54.96
2022-10-17T08:07:40.527Z,54.56
2022-10-17T08:10:43.397Z,54.11
2022-10-17T08:13:46.028Z,53.61
2022-10-17T08:16:48.934Z,53.71
2022-10-17T08:19:51.689Z,53.51
2022-10-17T08:22:55.554Z,52.95
2022-10-17T08:26:03.565Z,52.00
2022-10-17T08:29:06.547Z,51.59
2022-10-17T08:32:10.340Z,51.73
2022-10-17T08:35:15.189Z,50.23
2022-10-17T08:38:20.921Z,48.10
2022-10-17T08:41:50.651Z,45.51
2022-10-17T08:44:55.919Z,42.84
2022-10-17T08:48:02.330Z,39.12
2022-10-17T08:51:16.478Z,38.92
2022-10-17T08:54:26.571Z,36.06
2022-10-17T08:57:29.692Z,35.72
2022-10-17T09:00:33.953Z,33.67
2022-10-17T09:04:09.827Z,34.10
2022-10-17T09:07:28.340Z,32.40
2022-10-17T09:10:36.909Z,31.85
2022-10-17T09:13:55.258Z,31.57
2022-10-17T09:17:07.475Z,30.93
2022-10-17T09:20:20.082Z,31.27
2022-10-17T09:23:30.440Z,30.39
2022-10-17T09:26:34.974Z,32.02
2022-10-17T09:29:42.940Z,31.84
2022-10-17T09:32:47.872Z,31.70
2022-10-17T09:35:51.748Z,31.90
2022-10-17T09:39:00.505Z,33.88
2022-10-17T09:42:04.529Z,32.55
2022-10-17T09:45:20.147Z,31.12
2022-10-17T09:48:37.337Z,30.05
2022-10-17T09:51:40.968Z,31.48
2022-10-17T09:55:08.633Z,33.03
2022-10-17T09:58:12.098Z,32.63
2022-10-17T10:01:29.494Z,32.68
2022-10-17T10:04:46.745Z,32.66
2022-10-17T10:08:13.632Z,33.86
2022-10-17T10:11:17.947Z,33.35
2022-10-17T10:14:39.868Z,31.69
2022-10-17T10:17:43.574Z,32.86
2022-10-17T10:20:47.072Z,32.09
2022-10-17T10:24:08.738Z,30.94
2022-10-17T10:27:17.043Z,29.03
2022-10-17T10:30:25.754Z,29.67
2022-10-17T10:33:30.702Z,30.62
2022-10-17T10:36:50.250Z,28.80
2022-10-17T10:39:57.318Z,28.20
2022-10-17T10:43:05.099Z,27.19
2022-10-17T10:46:18.519Z,26.66
2022-10-17T10:49:32.469Z,27.59
2022-10-17T10:52:44.484Z,28.44
2022-10-17T10:55:52.845Z,28.19
2022-10-17T10:59:26.726Z,28.26
2022-10-17T11:02:43.149Z,26.65
2022-10-17T11:06:01.347Z,26.96
2022-10-17T11:09:34.180Z,28.50
2022-10-17T11:15:54.035Z,26.32
2022-10-17T11:19:12.397Z,26.37
2022-10-17T11:22:31.386Z,25.95
2022-10-17T11:25:37.385Z,26.31
2022-10-17T11:28:40.374Z,26.97
2022-10-17T11:31:49.659Z,26.95
2022-10-17T11:34:59.609Z,25.81
2022-10-17T11:38:22.511Z,26.79
2022-10-17T11:41:46.592Z,25.49
2022-10-17T11:44:52.354Z,25.24
2022-10-17T11:48:08.080Z,24.91
2022-10-17T11:54:54.785Z,27.65
2022-10-17T11:58:48.550Z,27.73
2022-10-17T12:02:02.057Z,26.94
2022-10-17T12:05:20.532Z,26.67
2022-10-17T12:08:47.484Z,26.33
2022-10-17T12:11:59.986Z,25.72
2022-10-17T12:15:20.856Z,27.06
2022-10-17T12:18:27.577Z,26.24
2022-10-17T12:21:55.208Z,26.78
2022-10-17T12:25:02.870Z,28.01
2022-10-17T12:28:30.917Z,26.57
2022-10-17T12:31:34.382Z,25.74
2022-10-17T12:34:38.306Z,28.19
2022-10-17T12:38:02.347Z,26.37
2022-10-17T12:41:06.115Z,28.12
2022-10-17T12:44:15.141Z,27.30
2022-10-17T12:47:36.797Z,27.81
2022-10-17T12:51:34.220Z,27.69
2022-10-17T12:54:47.246Z,28.75
2022-10-17T12:58:11.101Z,27.92
2022-10-17T13:01:26.015Z,27.18
2022-10-17T13:04:31.167Z,28.64
2022-10-17T13:07:36.643Z,27.18
2022-10-17T13:10:43.090Z,27.46
2022-10-17T13:13:52.043Z,28.01
2022-10-17T13:16:56.504Z,28.55
2022-10-17T13:19:59.173Z,28.73
2022-10-17T13:23:03.305Z,29.19
2022-10-17T13:26:22.566Z,30.65
2022-10-17T13:29:26.353Z,31.45
2022-10-17T13:32:37.651Z,31.43
2022-10-17T13:36:00.378Z,32.05
2022-10-17T13:39:14.957Z,33.47
2022-10-17T13:42:40.820Z,34.13
2022-10-17T13:45:49.604Z,34.97
2022-10-17T13:48:57.555Z,35.03
2022-10-17T13:52:02.869Z,34.95
2022-10-17T13:55:17.828Z,35.50
2022-10-17T13:58:21.427Z,35.92
2022-10-17T14:01:26.924Z,36.16
2022-10-17T14:04:40.023Z,36.18
2022-10-17T14:08:11.980Z,36.87
2022-10-17T14:11:23.634Z,36.70
2022-10-17T14:14:27.245Z,37.06
2022-10-17T14:17:31.410Z,37.30
2022-10-17T14:24:21.352Z,37.46
2022-10-17T14:28:03.666Z,37.80
2022-10-17T14:31:30.143Z,37.88
2022-10-17T14:34:36.215Z,38.50
2022-10-17T14:37:45.807Z,38.41
2022-10-17T14:44:52.144Z,39.26
2022-10-17T14:48:01.195Z,39.32
2022-10-17T14:51:15.554Z,39.80
2022-10-17T14:54:27.475Z,39.89
2022-10-17T14:57:33.179Z,39.91
2022-10-17T15:00:35.692Z,40.21
2022-10-17T15:03:38.726Z,41.16
2022-10-17T15:06:41.969Z,41.16
2022-10-17T15:09:48.796Z,41.34
2022-10-17T15:13:04.512Z,41.24
2022-10-17T15:16:30.614Z,41.73
2022-10-17T15:19:33.710Z,42.39
2022-10-17T15:22:38.159Z,42.50
2022-10-17T15:25:41.033Z,43.16
2022-10-17T15:28:46.459Z,43.88
2022-10-17T15:31:49.119Z,44.03
2022-10-17T15:34:53.596Z,44.69
2022-10-17T15:37:56.257Z,45.00
2022-10-17T15:40:59.283Z,45.55
2022-10-17T15:44:01.886Z,45.77
2022-10-17T15:47:20.061Z,46.64
2022-10-17T15:50:22.958Z,46.85
2022-10-17T15:53:26.070Z,47.68
2022-10-17T15:56:41.486Z,48.42
2022-10-17T15:59:47.089Z,49.18
2022-10-17T16:02:51.546Z,49.33
2022-10-17T16:05:57.268Z,50.35
2022-10-17T16:08:59.929Z,51.03
2022-10-17T16:12:14.336Z,50.81
2022-10-17T16:15:23.004Z,51.03
2022-10-17T16:18:27.275Z,51.73
2022-10-17T16:21:33.281Z,51.92
2022-10-17T16:24:36.124Z,51.54
2022-10-17T16:27:39.361Z,51.59
2022-10-17T16:30:46.464Z,51.71
2022-10-17T16:33:51.666Z,51.82
2022-10-17T16:36:54.734Z,52.35
2022-10-17T16:39:58.265Z,52.06
2022-10-17T16:43:02.588Z,52.30
2022-10-17T16:46:05.427Z,52.60
2022-10-17T16:49:08.353Z,52.95
2022-10-17T16:52:11.551Z,53.25
2022-10-17T16:55:14.791Z,54.22
2022-10-17T16:58:17.543Z,54.80
2022-10-17T17:01:23.752Z,55.44
2022-10-17T17:04:26.899Z,56.37
2022-10-17T17:07:30.845Z,56.52
2022-10-17T17:10:34.763Z,56.72
2022-10-17T17:13:38.343Z,57.59
2022-10-17T17:16:42.189Z,57.87
2022-10-17T17:19:47.073Z,58.13
2022-10-17T17:22:51.000Z,58.93
2022-10-17T17:26:03.133Z,60.12
2022-10-17T17:29:06.018Z,60.55
2022-10-17T17:32:09.483Z,60.74
2022-10-17T17:35:12.607Z,60.66
2022-10-17T17:38:16.085Z,61.56
2022-10-17T17:41:20.912Z,61.22
2022-10-17T17:44:24.184Z,61.00
2022-10-17T17:47:31.459Z,61.91
2022-10-17T17:50:38.527Z,62.09
2022-10-17T17:53:41.493Z,61.49
2022-10-17T17:56:44.501Z,62.52
2022-10-17T17:59:48.700Z,62.05
2022-10-17T18:02:52.171Z,62.29
2022-10-17T18:05:55.441Z,62.71
2022-10-17T18:08:59.440Z,62.31
2022-10-17T18:12:02.859Z,62.89
2022-10-17T18:15:06.952Z,62.36
2022-10-17T18:18:10.969Z,64.04
2022-10-17T18:21:14.993Z,64.31
2022-10-17T18:24:23.603Z,63.96
2022-10-17T18:27:26.831Z,63.93
2022-10-17T18:30:33.720Z,63.99
2022-10-17T18:33:38.310Z,63.79
2022-10-17T18:36:41.632Z,62.98
2022-10-17T18:39:45.488Z,62.97
2022-10-17T18:42:48.833Z,62.68
2022-10-17T18:45:56.714Z,63.22
2022-10-17T18:49:00.151Z,62.02
2022-10-17T18:52:04.445Z,62.37
2022-10-17T18:55:08.295Z,62.24
2022-10-17T18:58:11.278Z,61.22
2022-10-17T19:01:18.041Z,61.26
2022-10-17T19:04:22.355Z,61.67
2022-10-17T19:07:25.467Z,60.90
2022-10-17T19:10:28.104Z,61.16
2022-10-17T19:13:32.194Z,60.51
2022-10-17T19:16:41.591Z,60.60
2022-10-17T19:19:46.471Z,60.41
2022-10-17T19:26:05.999Z,60.39
2022-10-17T19:29:12.679Z,60.28
2022-10-17T19:32:20.621Z,60.06
2022-10-17T19:35:28.691Z,59.84
2022-10-17T19:38:32.079Z,59.74
2022-10-17T19:41:36.536Z,59.70
2022-10-17T19:44:40.238Z,59.54
2022-10-17T19:47:42.892Z,59.28
2022-10-17T19:50:46.210Z,58.91
2022-10-17T19:53:48.920Z,58.61
2022-10-17T19:56:53.391Z,58.16
2022-10-17T19:59:56.651Z,58.27
2022-10-17T20:03:03.298Z,58.33
2022-10-17T20:06:07.116Z,58.34
2022-10-17T20:09:15.702Z,57.89
2022-10-17T20:12:21.791Z,57.75
2022-10-17T20:15:24.501Z,57.93
2022-10-17T20:18:27.808Z,57.93
2022-10-17T20:21:35.399Z,57.85
2022-10-17T20:24:38.310Z,58.05
2022-10-17T20:27:40.917Z,58.08
2022-10-17T20:30:47.979Z,58.16
2022-10-17T20:34:00.311Z,58.27
2022-10-17T20:37:03.332Z,58.29
2022-10-17T20:40:33.701Z,58.42
2022-10-17T20:43:30.822Z,58.11
2022-10-17T20:46:38.318Z,58.03
2022-10-17T20:49:44.933Z,58.27
2022-10-17T20:52:47.645Z,58.36
2022-10-17T20:56:01.940Z,58.88
2022-10-17T20:59:08.374Z,58.97
2022-10-17T21:02:12.701Z,58.83
2022-10-17T21:05:17.865Z,59.39
2022-10-17T21:08:21.213Z,59.24
2022-10-17T21:11:26.227Z,59.49
2022-10-17T21:14:29.208Z,59.41
2022-10-17T21:17:31.968Z,59.12
2022-10-17T21:20:35.783Z,59.42
2022-10-17T21:23:40.855Z,59.63
2022-10-17T21:26:45.834Z,59.39
2022-10-17T21:29:48.611Z,59.56
2022-10-17T21:32:55.169Z,60.31
2022-10-17T21:35:58.084Z,60.40
2022-10-17T21:39:01.241Z,60.66
2022-10-17T21:42:04.138Z,60.78
2022-10-17T21:45:15.322Z,60.55
2022-10-17T21:48:22.752Z,61.01
2022-10-17T21:51:26.905Z,61.09
2022-10-17T21:54:29.502Z,61.20
2022-10-17T21:57:32.397Z,61.19
2022-10-17T22:00:36.154Z,61.21
2022-10-17T22:03:44.096Z,61.20
2022-10-17T22:06:53.491Z,61.14
2022-10-17T22:09:56.376Z,60.85
2022-10-17T22:12:58.973Z,60.67
2022-10-17T22:16:10.214Z,61.55
2022-10-17T22:19:14.971Z,61.29
2022-10-17T22:22:17.934Z,62.02
2022-10-17T22:25:20.596Z,63.11
2022-10-17T22:28:24.621Z,62.90
2022-10-17T22:31:27.690Z,63.15
2022-10-17T22:34:30.747Z,63.21
2022-10-17T22:37:33.596Z,63.01
2022-10-17T22:40:36.653Z,62.85
2022-10-17T22:43:39.307Z,62.84
2022-10-17T22:46:42.231Z,62.68
2022-10-17T22:49:46.054Z,62.87
2022-10-17T22:52:51.280Z,62.64
2022-10-17T22:55:59.018Z,62.44
2022-10-17T22:59:01.955Z,62.36
2022-10-17T23:02:04.619Z,62.14
2022-10-17T23:05:08.054Z,62.29
2022-10-17T23:08:12.281Z,62.84
2022-10-17T23:11:15.582Z,62.65
2022-10-17T23:14:18.263Z,63.46
2022-10-17T23:17:23.426Z,64.47
2022-10-17T23:20:26.251Z,64.28
2022-10-17T23:23:29.236Z,65.02
2022-10-17T23:26:31.826Z,65.23
2022-10-17T23:29:34.929Z,66.96
2022-10-17T23:32:38.649Z,67.62
2022-10-17T23:35:44.831Z,68.30
2022-10-17T23:38:49.018Z,68.35
2022-10-17T23:41:52.299Z,69.19
2022-10-17T23:44:55.062Z,69.22
2022-10-17T23:47:57.922Z,70.19
2022-10-17T23:51:00.885Z,70.37
2022-10-17T23:54:04.890Z,69.91
2022-10-17T23:57:07.517Z,69.79
